Impacts TAF Board
For situational awareness. Not to be used for flight planning purposes.
IDs:

KHUT - Hutchinson Muni, KS, US

Issued at 1127 UTC 10 Aug 2022
Updated at 1518 UTC 10 Aug 2022
Potential Impact None Slight Moderate High
Time1452Z 10/16Z 10/17Z 10/18Z 10/19Z 10/20Z 10/21Z 10/22Z 10/23Z 11/00Z 11/01Z 11/02Z 11/03Z 11/04Z>>
Type OBS PRVL PRVL PRVL PRVL PRVL PRVL PRVL PRVL PRVL PRVL PRVL PRVL PRVL
VIS 10 >6 >6 >6 >6 >6 >6 >6 >6 >6 >6 >6 >6 >6
CIG -- -- -- -- -- -- -- -- -- -- -- -- -- --
Cover CLR SKC SKC SKC SKC SKC SKC SKC SKC SKC SKC SKC SKC SKC
FltCat VFR VFR VFR VFR VFR VFR VFR VFR VFR VFR VFR VFR VFR VFR
WX -- -- -- -- -- -- -- -- -- -- -- -- -- --
WDir VRB 70 70 70 70 70 70 70 70 70 70 90 90 90
WSpd 6 7 7 7 7 7 7 7 7 7 7 5 5 5
WGst -- -- -- -- -- -- -- -- -- -- -- -- -- --
WSHgt -- -- -- -- -- -- -- -- -- -- -- -- -- --
WSDir -- -- -- -- -- -- -- -- -- -- -- -- -- --
WSSpd -- -- -- -- -- -- -- -- -- -- -- -- -- --
Raw TAF
KHUT 101127Z 1012/1112 VRB03KT P6SM SKC
  FM101600 07007KT P6SM SKC
  FM110200 09005KT P6SM SKC


Raw METAR
KHUT 101452Z VRB06KT 10SM CLR 27/20 A3019 RMK AO2 SLP201 T02670200 51011
KHUT 101352Z 09008KT 10SM CLR 24/19 A3018 RMK AO2 SLP198 T02390194
KHUT 101252Z 06004KT 10SM CLR 20/18 A3018 RMK AO2 SLP197 T02000178

METAR Board
Radar Display
Forecast Discussion
For situational awareness. Not to be used for flight planning purposes.